createdAt,value
2023-01-30T00:01:17.429Z,86.29
2023-01-30T00:03:21.134Z,86.39
2023-01-30T00:05:24.619Z,86.28
2023-01-30T00:07:29.255Z,86.27
2023-01-30T00:09:32.553Z,86.30
2023-01-30T00:11:35.714Z,86.30
2023-01-30T00:13:40.690Z,86.22
2023-01-30T00:15:44.414Z,86.25
2023-01-30T00:17:47.537Z,86.17
2023-01-30T00:19:50.679Z,86.31
2023-01-30T00:21:53.915Z,86.13
2023-01-30T00:23:59.866Z,86.44
2023-01-30T00:26:03.799Z,86.50
2023-01-30T00:28:07.095Z,86.23
2023-01-30T00:30:11.704Z,86.44
2023-01-30T00:32:17.609Z,86.42
2023-01-30T00:34:20.763Z,86.44
2023-01-30T00:36:23.940Z,86.45
2023-01-30T00:38:27.191Z,86.34
2023-01-30T00:40:31.692Z,86.46
2023-01-30T00:43:01.988Z,86.45
2023-01-30T00:45:23.329Z,86.35
2023-01-30T00:47:27.100Z,86.47
2023-01-30T00:49:31.886Z,86.56
2023-01-30T00:51:35.194Z,86.46
2023-01-30T00:53:38.356Z,86.58
2023-01-30T00:55:43.331Z,86.49
2023-01-30T00:57:46.543Z,86.55
2023-01-30T00:59:49.759Z,86.51
2023-01-30T01:01:53.665Z,86.43
2023-01-30T01:03:57.092Z,86.31
2023-01-30T01:06:00.815Z,86.42
2023-01-30T01:08:04.241Z,86.62
2023-01-30T01:10:08.489Z,86.49
2023-01-30T01:12:12.989Z,86.35
2023-01-30T01:14:16.106Z,86.31
2023-01-30T01:16:19.378Z,86.40
2023-01-30T01:18:22.765Z,86.44
2023-01-30T01:20:26.194Z,86.39
2023-01-30T01:22:29.345Z,86.50
2023-01-30T01:24:32.696Z,86.43
2023-01-30T01:26:35.886Z,86.50
2023-01-30T01:28:40.548Z,86.38
2023-01-30T01:30:47.207Z,86.57
2023-01-30T01:32:50.444Z,86.44
2023-01-30T01:34:53.580Z,86.58
2023-01-30T01:36:56.877Z,86.47
2023-01-30T01:39:00.052Z,86.60
2023-01-30T01:41:02.228Z,86.43
2023-01-30T01:43:16.614Z,86.63
2023-01-30T01:45:25.045Z,86.77
2023-01-30T01:47:28.695Z,86.80
2023-01-30T01:49:35.066Z,86.97
2023-01-30T01:51:43.567Z,86.98
2023-01-30T01:53:57.266Z,87.09
2023-01-30T01:56:03.584Z,87.10
2023-01-30T01:58:11.183Z,87.16
2023-01-30T02:00:16.916Z,87.40
2023-01-30T02:02:22.394Z,87.43
2023-01-30T02:04:42.984Z,87.40
2023-01-30T02:06:46.472Z,87.96
2023-01-30T02:08:55.480Z,87.82
2023-01-30T02:11:04.312Z,87.84
2023-01-30T02:13:07.570Z,88.08
2023-01-30T02:15:11.619Z,87.98
2023-01-30T02:17:17.019Z,88.36
2023-01-30T02:19:32.248Z,88.24
2023-01-30T02:21:57.135Z,88.38
2023-01-30T02:24:28.576Z,88.26
2023-01-30T02:26:55.262Z,88.25
2023-01-30T02:29:18.883Z,88.59
2023-01-30T02:31:34.133Z,88.59
2023-01-30T02:33:45.688Z,88.47
2023-01-30T02:35:54.527Z,88.61
2023-01-30T02:38:08.765Z,88.68
2023-01-30T02:40:23.747Z,88.79
2023-01-30T02:42:35.704Z,89.01
2023-01-30T02:44:48.636Z,88.99
2023-01-30T02:46:57.694Z,89.17
2023-01-30T02:49:06.601Z,89.08
2023-01-30T02:51:15.399Z,89.25
2023-01-30T02:53:18.698Z,89.29
2023-01-30T02:55:24.418Z,89.38
2023-01-30T02:57:27.888Z,89.30
2023-01-30T02:59:40.514Z,89.35
2023-01-30T03:02:12.113Z,89.45
2023-01-30T03:04:38.973Z,89.67
2023-01-30T03:07:01.152Z,89.57
2023-01-30T03:09:12.175Z,89.55
2023-01-30T03:11:15.771Z,89.65
2023-01-30T03:13:22.866Z,89.67
2023-01-30T03:15:32.691Z,89.66
2023-01-30T03:17:38.725Z,89.80
2023-01-30T03:19:42.985Z,89.72
2023-01-30T03:21:47.231Z,89.83
2023-01-30T03:23:50.444Z,89.87
2023-01-30T03:25:53.761Z,89.89
2023-01-30T03:27:57.594Z,89.66
2023-01-30T03:30:01.071Z,89.77
2023-01-30T03:32:04.455Z,89.74
2023-01-30T03:34:09.032Z,89.87
2023-01-30T03:36:12.600Z,89.80
2023-01-30T03:38:16.062Z,89.90
2023-01-30T03:40:19.752Z,89.90
2023-01-30T03:42:23.491Z,90.07
2023-01-30T03:44:26.694Z,89.97
2023-01-30T03:46:30.032Z,90.00
2023-01-30T03:48:33.431Z,89.99
2023-01-30T03:50:38.527Z,89.85
2023-01-30T03:52:42.226Z,90.00
2023-01-30T03:54:48.116Z,90.06
2023-01-30T03:56:51.732Z,89.99
2023-01-30T03:58:54.950Z,90.11
2023-01-30T04:01:06.005Z,90.16
2023-01-30T04:03:09.261Z,90.13
2023-01-30T04:05:12.517Z,90.05
2023-01-30T04:07:21.385Z,90.26
2023-01-30T04:09:27.565Z,90.13
2023-01-30T04:11:30.777Z,90.29
2023-01-30T04:13:33.928Z,90.34
2023-01-30T04:15:37.587Z,90.43
2023-01-30T04:17:58.557Z,90.55
2023-01-30T04:20:21.632Z,90.41
2023-01-30T04:22:30.370Z,90.57
2023-01-30T04:24:34.387Z,90.53
2023-01-30T04:26:37.616Z,90.61
2023-01-30T04:28:41.570Z,90.50
2023-01-30T04:30:44.886Z,90.44
2023-01-30T04:33:10.257Z,90.35
2023-01-30T04:35:15.598Z,90.43
2023-01-30T04:37:19.200Z,90.26
2023-01-30T04:39:26.148Z,90.00
2023-01-30T04:41:29.373Z,90.05
2023-01-30T04:43:36.652Z,90.01
2023-01-30T04:45:58.856Z,89.90
2023-01-30T04:48:02.609Z,89.92
2023-01-30T04:50:07.988Z,89.96
2023-01-30T04:52:11.637Z,89.71
2023-01-30T04:54:14.926Z,89.81
2023-01-30T04:56:19.448Z,90.02
2023-01-30T04:58:24.788Z,89.95
2023-01-30T05:00:28.559Z,90.02
2023-01-30T05:02:35.370Z,90.08
2023-01-30T05:04:38.493Z,90.00
2023-01-30T05:06:41.683Z,90.00
2023-01-30T05:08:46.883Z,90.11
2023-01-30T05:10:50.143Z,90.10
2023-01-30T05:12:54.705Z,90.04
2023-01-30T05:14:58.215Z,90.07
2023-01-30T05:17:01.585Z,89.73
2023-01-30T05:19:04.881Z,90.02
2023-01-30T05:21:10.003Z,89.85
2023-01-30T05:23:13.165Z,89.71
2023-01-30T05:25:16.844Z,89.62
2023-01-30T05:27:20.241Z,89.75
2023-01-30T05:29:24.786Z,89.34
2023-01-30T05:31:31.043Z,89.34
2023-01-30T05:33:34.509Z,89.09
2023-01-30T05:35:37.628Z,88.93
2023-01-30T05:37:41.125Z,88.84
2023-01-30T05:39:44.250Z,88.60
2023-01-30T05:41:47.854Z,88.70
2023-01-30T05:43:51.959Z,88.38
2023-01-30T05:45:57.699Z,88.47
2023-01-30T05:48:01.598Z,88.41
2023-01-30T05:50:05.452Z,88.22
2023-01-30T05:52:08.664Z,87.97
2023-01-30T05:54:11.838Z,87.95
2023-01-30T05:56:15.115Z,87.84
2023-01-30T05:58:18.367Z,87.77
2023-01-30T06:00:22.790Z,87.50
2023-01-30T06:02:27.369Z,87.56
2023-01-30T06:04:30.515Z,87.43
2023-01-30T06:06:33.706Z,87.35
2023-01-30T06:08:36.846Z,87.18
2023-01-30T06:10:40.120Z,87.15
2023-01-30T06:12:43.751Z,87.05
2023-01-30T06:14:46.938Z,86.83
2023-01-30T06:16:50.175Z,86.85
2023-01-30T06:18:54.735Z,86.77
2023-01-30T06:20:58.275Z,86.89
2023-01-30T06:23:01.457Z,86.76
2023-01-30T06:25:05.063Z,86.73
2023-01-30T06:27:08.472Z,86.67
2023-01-30T06:29:11.734Z,86.64
2023-01-30T06:31:14.896Z,86.82
2023-01-30T06:33:18.018Z,86.59
2023-01-30T06:35:22.536Z,86.83
2023-01-30T06:37:25.774Z,86.92
2023-01-30T06:39:28.886Z,87.03
2023-01-30T06:41:32.034Z,86.92
2023-01-30T06:43:35.175Z,86.76
2023-01-30T06:45:38.362Z,86.97
2023-01-30T06:47:48.116Z,86.91
2023-01-30T06:49:51.269Z,86.95
2023-01-30T06:51:55.775Z,87.02
2023-01-30T06:53:58.907Z,86.81
2023-01-30T06:56:02.901Z,86.68
2023-01-30T06:58:08.203Z,86.67
2023-01-30T07:00:14.439Z,86.71
2023-01-30T07:02:17.705Z,86.86
2023-01-30T07:04:20.950Z,86.44
2023-01-30T07:06:24.315Z,86.57
2023-01-30T07:08:28.828Z,86.53
2023-01-30T07:10:32.614Z,86.15
2023-01-30T07:12:36.232Z,86.16
2023-01-30T07:14:39.601Z,86.08
2023-01-30T07:16:42.820Z,85.97
2023-01-30T07:18:46.011Z,86.16
2023-01-30T07:20:49.795Z,86.02
2023-01-30T07:22:53.566Z,85.80
2023-01-30T07:24:58.289Z,85.62
2023-01-30T07:27:04.630Z,85.61
2023-01-30T07:29:07.871Z,85.27
2023-01-30T07:31:11.149Z,85.31
2023-01-30T07:33:14.652Z,85.16
2023-01-30T07:35:18.209Z,85.23
2023-01-30T07:37:21.706Z,84.85
2023-01-30T07:39:25.749Z,84.85
2023-01-30T07:41:30.535Z,84.95
2023-01-30T07:43:36.419Z,84.91
2023-01-30T07:45:41.845Z,84.73
2023-01-30T07:47:45.126Z,84.64
2023-01-30T07:49:48.764Z,84.83
2023-01-30T07:51:52.246Z,84.72
2023-01-30T07:53:56.020Z,84.95
2023-01-30T07:56:02.667Z,84.90
2023-01-30T07:58:11.681Z,84.79
2023-01-30T08:00:17.433Z,84.87
2023-01-30T08:02:22.390Z,84.73
2023-01-30T08:04:25.901Z,84.66
2023-01-30T08:06:31.094Z,84.06
2023-01-30T08:08:35.040Z,83.98
2023-01-30T08:10:38.568Z,84.04
2023-01-30T08:12:42.741Z,83.89
2023-01-30T08:14:47.619Z,83.70
2023-01-30T08:16:52.367Z,83.52
2023-01-30T08:18:56.064Z,83.53
2023-01-30T08:21:02.837Z,83.31
2023-01-30T08:23:06.966Z,83.01
2023-01-30T08:25:10.491Z,82.10
2023-01-30T08:27:13.984Z,82.15
2023-01-30T08:29:17.377Z,82.06
2023-01-30T08:31:22.087Z,82.00
2023-01-30T08:33:26.361Z,81.66
2023-01-30T08:35:29.598Z,81.38
2023-01-30T08:37:32.792Z,81.36
2023-01-30T08:39:37.274Z,81.35
2023-01-30T08:41:43.136Z,81.26
2023-01-30T08:43:46.689Z,81.09
2023-01-30T08:45:50.122Z,81.32
2023-01-30T08:47:54.774Z,80.80
2023-01-30T08:49:58.091Z,80.88
2023-01-30T08:52:05.078Z,80.89
2023-01-30T08:54:08.949Z,80.66
2023-01-30T08:56:12.122Z,80.47
2023-01-30T08:58:15.748Z,80.61
2023-01-30T09:00:20.535Z,80.69
2023-01-30T09:02:23.805Z,80.41
2023-01-30T09:04:30.616Z,80.42
2023-01-30T09:06:34.169Z,80.23
2023-01-30T09:08:37.650Z,80.11
2023-01-30T09:10:41.281Z,80.15
2023-01-30T09:12:44.599Z,79.52
2023-01-30T09:14:47.923Z,79.03
2023-01-30T09:16:55.592Z,78.88
2023-01-30T09:18:59.061Z,79.17
2023-01-30T09:21:07.378Z,78.22
2023-01-30T09:23:13.138Z,78.34
2023-01-30T09:25:19.486Z,78.27
2023-01-30T09:27:22.703Z,77.36
2023-01-30T09:29:26.450Z,77.47
2023-01-30T09:31:29.971Z,77.33
2023-01-30T09:33:33.275Z,77.20
2023-01-30T09:35:36.800Z,77.60
2023-01-30T09:37:48.342Z,77.64
2023-01-30T09:39:51.412Z,77.62
2023-01-30T09:42:16.228Z,77.56
2023-01-30T09:44:42.579Z,77.73
2023-01-30T09:46:53.956Z,76.78
2023-01-30T09:49:02.656Z,76.92
2023-01-30T09:51:23.083Z,77.35
2023-01-30T09:53:35.319Z,77.00
2023-01-30T09:55:41.943Z,76.97
2023-01-30T09:57:46.625Z,77.19
2023-01-30T09:59:59.162Z,77.21
2023-01-30T10:02:25.541Z,77.40
2023-01-30T10:04:34.564Z,78.04
2023-01-30T10:06:45.727Z,78.85
2023-01-30T10:08:57.655Z,79.33
2023-01-30T10:11:12.955Z,80.25
2023-01-30T10:13:32.155Z,80.62
2023-01-30T10:15:50.666Z,80.80
2023-01-30T10:18:09.420Z,81.89
2023-01-30T10:20:33.129Z,82.04
2023-01-30T10:22:47.537Z,82.28
2023-01-30T10:25:00.357Z,82.45
2023-01-30T10:27:04.999Z,82.92
2023-01-30T10:29:17.424Z,83.01
2023-01-30T10:31:24.050Z,83.02
2023-01-30T10:33:33.233Z,83.23
2023-01-30T10:35:39.648Z,83.13
2023-01-30T10:37:47.689Z,83.29
2023-01-30T10:40:00.610Z,83.42
2023-01-30T10:42:11.799Z,83.84
2023-01-30T10:44:18.533Z,83.88
2023-01-30T10:46:36.728Z,84.13
2023-01-30T10:48:56.363Z,84.02
2023-01-30T10:51:04.482Z,83.99
2023-01-30T10:53:16.848Z,83.90
2023-01-30T10:55:37.134Z,83.72
2023-01-30T10:57:52.145Z,83.73
2023-01-30T11:00:02.773Z,83.33
2023-01-30T11:02:22.771Z,83.49
2023-01-30T11:04:32.292Z,83.39
2023-01-30T11:06:36.690Z,83.30
2023-01-30T11:08:40.091Z,83.68
2023-01-30T11:10:44.764Z,83.77
2023-01-30T11:12:47.990Z,84.07
2023-01-30T11:14:53.105Z,84.27
2023-01-30T11:16:57.783Z,84.52
2023-01-30T11:19:19.670Z,84.72
2023-01-30T11:21:32.064Z,84.92
2023-01-30T11:23:43.730Z,85.12
2023-01-30T11:26:09.100Z,85.15
2023-01-30T11:28:17.270Z,85.59
2023-01-30T11:30:23.251Z,85.67
2023-01-30T11:32:28.871Z,86.08
2023-01-30T11:34:32.234Z,85.95
2023-01-30T11:36:36.831Z,86.25
2023-01-30T11:38:55.534Z,86.23
2023-01-30T11:41:17.402Z,86.51
2023-01-30T11:43:27.225Z,86.39
2023-01-30T11:45:35.796Z,86.32
2023-01-30T11:47:43.243Z,86.40
2023-01-30T11:49:57.579Z,86.70
2023-01-30T11:52:08.714Z,86.37
2023-01-30T11:54:15.858Z,86.28
2023-01-30T11:56:25.142Z,86.16
2023-01-30T11:58:32.874Z,86.21
2023-01-30T12:00:40.811Z,86.12
2023-01-30T12:02:46.481Z,86.22
2023-01-30T12:04:54.065Z,86.30
2023-01-30T12:07:08.930Z,86.16
2023-01-30T12:09:33.645Z,86.38
2023-01-30T12:11:45.867Z,86.40
2023-01-30T12:13:50.281Z,86.46
2023-01-30T12:16:02.227Z,86.36
2023-01-30T12:18:13.329Z,86.61
2023-01-30T12:20:26.292Z,86.10
2023-01-30T12:22:34.846Z,85.86
2023-01-30T12:24:43.517Z,85.62
2023-01-30T12:26:53.194Z,85.44
2023-01-30T12:29:03.952Z,84.90
2023-01-30T12:31:12.222Z,84.79
2023-01-30T12:35:24.786Z,84.66
2023-01-30T12:37:41.736Z,84.95
2023-01-30T12:39:56.061Z,84.90
2023-01-30T12:42:25.325Z,84.91
2023-01-30T12:44:44.781Z,85.21
2023-01-30T12:47:08.767Z,85.07
2023-01-30T12:49:30.252Z,84.95
2023-01-30T12:51:50.187Z,84.57
2023-01-30T12:54:04.646Z,84.62
2023-01-30T12:56:34.889Z,84.51
2023-01-30T12:58:46.811Z,84.40
2023-01-30T13:01:07.274Z,84.32
2023-01-30T13:03:23.767Z,84.08
2023-01-30T13:05:41.487Z,84.09
2023-01-30T13:07:55.034Z,84.02
2023-01-30T13:10:10.032Z,83.85
2023-01-30T13:12:22.286Z,83.40
2023-01-30T13:14:35.616Z,83.12
2023-01-30T13:16:52.562Z,82.81
2023-01-30T13:18:59.977Z,82.44
2023-01-30T13:21:11.811Z,81.83
2023-01-30T13:23:19.105Z,81.23
2023-01-30T13:25:32.111Z,80.71
2023-01-30T13:27:40.025Z,80.44
2023-01-30T13:29:45.588Z,80.21
2023-01-30T13:31:52.901Z,80.09
2023-01-30T13:34:05.593Z,79.68
2023-01-30T13:36:15.879Z,79.78
2023-01-30T13:38:22.363Z,79.80
2023-01-30T13:40:28.881Z,79.83
2023-01-30T13:42:46.429Z,79.96
2023-01-30T13:44:53.103Z,80.31
2023-01-30T13:46:58.925Z,80.25
2023-01-30T13:49:10.316Z,80.32
2023-01-30T13:51:33.375Z,80.37
2023-01-30T13:53:45.214Z,80.14
2023-01-30T13:55:53.144Z,79.61
2023-01-30T13:58:03.136Z,79.36
2023-01-30T14:00:29.458Z,79.40
2023-01-30T14:02:32.670Z,79.09
2023-01-30T14:04:47.519Z,78.89
2023-01-30T14:06:50.695Z,78.81
2023-01-30T14:08:59.279Z,79.04
2023-01-30T14:11:03.277Z,79.25
2023-01-30T14:13:07.480Z,79.08
2023-01-30T14:15:25.588Z,79.08
2023-01-30T14:17:31.035Z,79.20
2023-01-30T14:19:38.388Z,79.33
2023-01-30T14:21:41.712Z,79.46
2023-01-30T14:23:57.148Z,79.39
2023-01-30T14:26:00.850Z,79.48
2023-01-30T14:28:51.977Z,79.54
2023-01-30T14:30:58.971Z,79.65
2023-01-30T14:33:04.691Z,79.57
2023-01-30T14:35:22.619Z,79.43
2023-01-30T14:37:48.503Z,79.15
2023-01-30T14:39:55.823Z,79.00
2023-01-30T14:42:25.503Z,78.66
2023-01-30T14:44:56.886Z,78.58
2023-01-30T14:47:00.251Z,78.31
2023-01-30T14:49:29.285Z,77.74
2023-01-30T14:51:37.090Z,77.56
2023-01-30T14:53:52.067Z,77.25
2023-01-30T14:56:02.027Z,76.62
2023-01-30T14:58:06.183Z,76.79
2023-01-30T15:00:19.957Z,76.20
2023-01-30T15:02:27.297Z,75.58
2023-01-30T15:04:34.967Z,75.29
2023-01-30T15:06:38.409Z,75.32
2023-01-30T15:08:44.747Z,75.27
2023-01-30T15:11:09.709Z,75.22
2023-01-30T15:13:42.701Z,74.72
2023-01-30T15:15:57.132Z,74.71
2023-01-30T15:18:24.345Z,74.61
2023-01-30T15:20:40.741Z,74.22
2023-01-30T15:23:00.307Z,73.93
2023-01-30T15:25:23.645Z,73.55
2023-01-30T15:27:33.880Z,73.64
2023-01-30T15:30:12.570Z,73.48
2023-01-30T15:32:19.317Z,73.61
2023-01-30T15:34:23.440Z,73.58
2023-01-30T15:36:31.339Z,73.56
2023-01-30T15:38:35.665Z,73.57
2023-01-30T15:40:41.920Z,73.48
2023-01-30T15:42:45.807Z,73.64
2023-01-30T15:44:59.163Z,73.83
2023-01-30T15:47:23.649Z,73.82
2023-01-30T15:49:44.726Z,73.65
2023-01-30T15:51:49.366Z,73.62
2023-01-30T15:53:52.607Z,73.71
2023-01-30T15:55:56.423Z,73.54
2023-01-30T15:58:02.304Z,73.45
2023-01-30T16:00:08.473Z,73.28
2023-01-30T16:02:24.883Z,73.39
2023-01-30T16:04:29.377Z,73.62
2023-01-30T16:06:34.237Z,73.78
2023-01-30T16:08:38.763Z,74.07
2023-01-30T16:10:46.759Z,74.34
2023-01-30T16:12:52.902Z,74.43
2023-01-30T16:15:03.134Z,74.56
2023-01-30T16:17:15.735Z,74.79
2023-01-30T16:19:28.210Z,74.73
2023-01-30T16:21:35.288Z,74.79
2023-01-30T16:23:43.441Z,75.02
2023-01-30T16:25:48.916Z,75.14
2023-01-30T16:27:53.722Z,75.28
2023-01-30T16:30:00.727Z,75.44
2023-01-30T16:32:13.119Z,75.68
2023-01-30T16:34:31.155Z,75.52
2023-01-30T16:36:40.505Z,75.39
2023-01-30T16:38:46.597Z,75.35
2023-01-30T16:40:49.921Z,75.54
2023-01-30T16:42:58.579Z,75.33
2023-01-30T16:45:35.189Z,75.16
2023-01-30T16:47:38.877Z,75.12
2023-01-30T16:49:48.985Z,75.28
2023-01-30T16:52:02.220Z,75.16
2023-01-30T16:54:18.407Z,75.34
2023-01-30T16:56:21.911Z,75.22
2023-01-30T16:58:32.318Z,74.97
2023-01-30T17:00:38.130Z,75.04
2023-01-30T17:02:43.151Z,74.87
2023-01-30T17:04:46.362Z,74.38
2023-01-30T17:06:56.524Z,74.47
2023-01-30T17:09:02.283Z,73.87
2023-01-30T17:11:07.272Z,74.11
2023-01-30T17:13:31.245Z,74.03
2023-01-30T17:15:36.264Z,73.87
2023-01-30T17:17:39.578Z,73.58
2023-01-30T17:19:42.814Z,73.51
2023-01-30T17:21:50.538Z,73.62
2023-01-30T17:23:56.193Z,73.87
2023-01-30T17:25:59.384Z,74.09
2023-01-30T17:28:03.936Z,74.18
2023-01-30T17:30:14.315Z,74.41
2023-01-30T17:32:17.653Z,74.42
2023-01-30T17:34:22.688Z,74.31
2023-01-30T17:36:28.456Z,74.12
2023-01-30T17:38:31.568Z,74.23
2023-01-30T17:40:37.269Z,74.16
2023-01-30T17:42:40.483Z,74.37
2023-01-30T17:44:45.232Z,74.19
2023-01-30T17:46:50.264Z,73.91
2023-01-30T17:48:53.387Z,73.69
2023-01-30T17:50:56.536Z,73.28
2023-01-30T17:52:59.685Z,73.31
2023-01-30T17:55:02.824Z,72.86
2023-01-30T17:57:09.722Z,72.99
2023-01-30T17:59:15.381Z,72.66
2023-01-30T18:01:20.006Z,72.67
2023-01-30T18:03:23.212Z,72.51
2023-01-30T18:05:26.588Z,72.42
2023-01-30T18:07:30.683Z,72.54
2023-01-30T18:09:33.789Z,72.21
2023-01-30T18:11:37.062Z,72.27
2023-01-30T18:13:40.600Z,72.32
2023-01-30T18:15:43.824Z,72.55
2023-01-30T18:17:50.355Z,72.83
2023-01-30T18:19:54.987Z,72.72
2023-01-30T18:21:58.527Z,72.72
2023-01-30T18:24:02.159Z,72.84
2023-01-30T18:26:05.833Z,72.83
2023-01-30T18:28:11.691Z,72.91
2023-01-30T18:30:17.665Z,73.13
2023-01-30T18:32:21.253Z,73.21
2023-01-30T18:34:25.749Z,73.23
2023-01-30T18:36:29.053Z,73.27
2023-01-30T18:38:32.299Z,73.51
2023-01-30T18:40:35.465Z,73.41
2023-01-30T18:42:38.655Z,73.32
2023-01-30T18:44:41.824Z,73.33
2023-01-30T18:46:45.012Z,73.43
2023-01-30T18:48:48.444Z,73.38
2023-01-30T18:50:52.932Z,73.15
2023-01-30T18:52:56.136Z,72.85
2023-01-30T18:54:59.329Z,72.87
2023-01-30T18:57:02.520Z,72.34
2023-01-30T18:59:07.130Z,72.18
2023-01-30T19:01:12.491Z,71.68
2023-01-30T19:03:17.408Z,71.26
2023-01-30T19:05:20.995Z,71.21
2023-01-30T19:07:25.508Z,70.97
2023-01-30T19:09:28.728Z,70.87
2023-01-30T19:11:49.659Z,70.62
2023-01-30T19:13:53.500Z,70.60
2023-01-30T19:15:59.211Z,70.56
2023-01-30T19:18:02.446Z,70.49
2023-01-30T19:20:10.881Z,70.58
2023-01-30T19:22:14.354Z,70.43
2023-01-30T19:24:19.706Z,70.67
2023-01-30T19:26:23.983Z,70.66
2023-01-30T19:28:27.520Z,70.90
2023-01-30T19:30:31.741Z,71.10
2023-01-30T19:32:35.362Z,71.29
2023-01-30T19:34:38.571Z,71.58
2023-01-30T19:36:41.682Z,71.64
2023-01-30T19:38:46.849Z,71.80
2023-01-30T19:40:51.350Z,72.28
2023-01-30T19:42:56.832Z,72.41
2023-01-30T19:45:02.945Z,72.71
2023-01-30T19:47:06.247Z,72.78
2023-01-30T19:49:09.481Z,72.90
2023-01-30T19:51:14.503Z,73.05
2023-01-30T19:53:17.925Z,73.19
2023-01-30T19:55:21.246Z,73.46
2023-01-30T19:57:25.766Z,73.73
2023-01-30T19:59:28.889Z,73.58
2023-01-30T20:01:36.966Z,73.46
2023-01-30T20:03:41.375Z,73.72
2023-01-30T20:05:45.269Z,73.53
2023-01-30T20:07:49.785Z,73.72
2023-01-30T20:09:53.118Z,73.68
2023-01-30T20:11:56.309Z,73.70
2023-01-30T20:14:01.425Z,73.69
2023-01-30T20:16:06.614Z,73.95
2023-01-30T20:18:09.864Z,74.07
2023-01-30T20:20:13.555Z,73.95
2023-01-30T20:22:16.757Z,74.08
2023-01-30T20:24:20.359Z,74.03
2023-01-30T20:26:25.474Z,73.83
2023-01-30T20:28:29.189Z,73.79
2023-01-30T20:30:33.891Z,73.66
2023-01-30T20:32:37.280Z,73.39
2023-01-30T20:34:40.558Z,73.50
2023-01-30T20:36:43.876Z,73.29
2023-01-30T20:38:49.025Z,73.38
2023-01-30T20:40:52.338Z,73.37
2023-01-30T20:42:55.477Z,73.58
2023-01-30T20:44:58.661Z,73.28
2023-01-30T20:47:03.603Z,73.12
2023-01-30T20:49:06.753Z,73.13
2023-01-30T20:51:12.520Z,73.18
2023-01-30T20:53:15.665Z,72.92
2023-01-30T20:55:19.407Z,73.02
2023-01-30T20:57:22.639Z,73.12
2023-01-30T20:59:27.297Z,72.99
2023-01-30T21:01:30.929Z,73.07
2023-01-30T21:03:35.638Z,73.00
2023-01-30T21:05:38.776Z,73.16
2023-01-30T21:07:42.159Z,73.15
2023-01-30T21:09:45.432Z,73.15
2023-01-30T21:11:49.940Z,73.06
2023-01-30T21:13:53.147Z,73.02
2023-01-30T21:16:05.714Z,72.89
2023-01-30T21:18:08.911Z,72.98
2023-01-30T21:20:13.824Z,73.18
2023-01-30T21:22:16.959Z,73.03
2023-01-30T21:24:22.551Z,73.10
2023-01-30T21:26:28.021Z,73.05
2023-01-30T21:28:32.049Z,73.26
2023-01-30T21:30:37.031Z,73.37
2023-01-30T21:32:40.373Z,73.21
2023-01-30T21:34:43.579Z,73.31
2023-01-30T21:37:08.877Z,73.47
2023-01-30T21:39:31.823Z,73.46
2023-01-30T21:41:55.324Z,73.68
2023-01-30T21:43:58.521Z,73.68
2023-01-30T21:46:01.877Z,73.65
2023-01-30T21:48:05.680Z,73.80
2023-01-30T21:50:10.235Z,73.70
2023-01-30T21:52:14.835Z,73.99
2023-01-30T21:54:19.223Z,74.10
2023-01-30T21:56:23.294Z,73.94
2023-01-30T21:58:26.512Z,74.01
2023-01-30T22:00:30.120Z,74.14
2023-01-30T22:02:33.306Z,74.08
2023-01-30T22:04:36.791Z,73.88
2023-01-30T22:06:40.008Z,73.96
2023-01-30T22:08:44.551Z,73.82
2023-01-30T22:10:47.757Z,73.52
2023-01-30T22:12:50.890Z,73.58
2023-01-30T22:14:54.634Z,73.52
2023-01-30T22:16:58.096Z,73.46
2023-01-30T22:19:03.377Z,73.60
2023-01-30T22:21:10.977Z,73.36
2023-01-30T22:23:14.157Z,73.49
2023-01-30T22:25:18.873Z,73.29
2023-01-30T22:27:22.358Z,73.27
2023-01-30T22:29:25.557Z,73.36
2023-01-30T22:31:30.992Z,73.26
2023-01-30T22:33:34.881Z,73.40
2023-01-30T22:35:38.372Z,73.06
2023-01-30T22:37:41.580Z,72.90
2023-01-30T22:39:44.752Z,72.80
2023-01-30T22:41:49.355Z,72.49
2023-01-30T22:43:55.504Z,72.63
2023-01-30T22:46:00.776Z,72.62
2023-01-30T22:48:04.027Z,72.71
2023-01-30T22:50:07.880Z,72.68
2023-01-30T22:52:11.073Z,73.00
2023-01-30T22:54:16.596Z,73.29
2023-01-30T22:56:21.532Z,73.55
2023-01-30T22:58:26.286Z,73.63
2023-01-30T23:00:29.601Z,73.88
2023-01-30T23:02:33.221Z,73.85
2023-01-30T23:04:36.955Z,74.14
2023-01-30T23:06:40.586Z,74.22
2023-01-30T23:08:45.735Z,74.55
2023-01-30T23:10:48.866Z,74.76
2023-01-30T23:13:07.606Z,74.75
2023-01-30T23:15:12.646Z,74.98
2023-01-30T23:17:33.192Z,75.02
2023-01-30T23:19:36.696Z,75.16
2023-01-30T23:21:42.015Z,75.32
2023-01-30T23:23:45.479Z,75.27
2023-01-30T23:25:48.657Z,75.19
2023-01-30T23:27:51.991Z,75.22
2023-01-30T23:29:55.183Z,75.21
2023-01-30T23:31:59.841Z,75.30
2023-01-30T23:34:06.260Z,75.16
2023-01-30T23:36:10.810Z,75.29
2023-01-30T23:38:19.023Z,75.43
2023-01-30T23:40:22.193Z,75.54
2023-01-30T23:42:25.436Z,75.71
2023-01-30T23:44:28.600Z,75.70
2023-01-30T23:46:33.699Z,75.84
2023-01-30T23:48:38.660Z,76.14
2023-01-30T23:50:42.223Z,76.11
2023-01-30T23:52:46.020Z,76.04
2023-01-30T23:54:49.191Z,76.38
2023-01-30T23:56:52.333Z,76.50
2023-01-30T23:58:56.268Z,76.62
